Terminal Aerodrome Forecast
Issued by NWS

Current Version | Previous Version | Graphics & Text | Print | Product List | Glossary On
Versions: 1 2 3 4 5 6 7 8 9 10 11 12 13 14 15 16 17 18 19 20 21 22 23 24
000
FTUS41 KPBZ 290134 AAA
TAFHLG
TAF AMD
KHLG 290134Z 2902/2924 36005KT 3SM BR OVC002
     FM291400 28005KT P6SM OVC008
     FM291900 29006KT P6SM BKN025=

USA.gov is the U.S. government's official web portal to all federal, state and local government web resources and services.